KCUB 071510Z 0715/0812 26003KT 6SM HZ SKC
FM071600 28012G18KT 6SM HZ SCT035 SCT150 BKN250
FM080000 32010G15KT P6SM VCSH SCT040 BKN070
From batch tds/tafs/production/2023/6/7/h15_m19_tafs.cache.xml
Issued (12 months ago)
Forecasts
0715/0716 26003KT 6.0SM SKC

---
wx_string: HZ
fcst_time_to: '2023-06-07T16:00:00Z'
sky_condition:
- sky_cover: SKC
wind_speed_kt: '3'
fcst_time_from: '2023-06-07T15:00:00Z'
wind_dir_degrees: '260'
visibility_statute_mi: '6.0'

FM071600 28012G18KT 6.0SM SCT3500 SCT15000 BKN25000

---
wx_string: HZ
fcst_time_to: '2023-06-08T00:00:00Z'
wind_gust_kt: '18'
sky_condition:
- - sky_cover: SCT
    cloud_base_ft_agl: '3500'
- - sky_cover: SCT
    cloud_base_ft_agl: '15000'
- - sky_cover: BKN
    cloud_base_ft_agl: '25000'
wind_speed_kt: '12'
fcst_time_from: '2023-06-07T16:00:00Z'
change_indicator: FM
wind_dir_degrees: '280'
visibility_statute_mi: '6.0'

FM080000 32010G15KT P6SM SCT4000 BKN7000

---
wx_string: VCSH
fcst_time_to: '2023-06-08T12:00:00Z'
wind_gust_kt: '15'
sky_condition:
- - sky_cover: SCT
    cloud_base_ft_agl: '4000'
- - sky_cover: BKN
    cloud_base_ft_agl: '7000'
wind_speed_kt: '10'
fcst_time_from: '2023-06-08T00:00:00Z'
change_indicator: FM
wind_dir_degrees: '320'
visibility_statute_mi: '6.21'

talk